Portada
METAR-TAF:

METAR-TAF

Aeroports :

San Andrés, Colòmbia

latitud: 12-35N, longitud: 081-43W, altitud: 1 m

Observació

L'informe es va fer fa 31 minuts, a les 19:00 UTC
Vent 10 kt del Nord-Est, variant entre Nord i Est/Nord-Est
Temperatura 30°C
Humitat 75%
Pressió 1012 hPa
Visibilitat 10 km o més
Escasses núvols a una alçada de 1800 ft

METAR: SKSP 211900Z 04010KT 010V070 9999 FEW018 30/25 A2987

Hora: 14:31 (19:31 UTC)

Pronòstic

L'informe es va fer fa 3 hores i 1 minuts, a les 16:30 UTC
Pronòstic vàlid del 21 a les 18 UTC al 22 a les 18 UTC
Vent 11 kt del Nord-Est
Visibilitat 10 km o més
Escasses núvols a una alçada de 1700 ft
Núvols disperses a una alçada de 8000 ft

TAF: SKSP 211630Z 2118/2218 04011KT 9999 FEW017 SCT080 TX31/2118Z TN25/2211Z

Observacions i pronòstics meteorològics de més de 4000 aeroports (METAR i TAF).

Les estacions disponibles són els punts grocs i vermells al mapa.

Posi el ratolí al punt desitjat per veure el nom de l'estació.

Feu clic per veure les observacions i els pronòstics meteorològics.

Per canviar el mapa: feu clic els botons verds amb una creu de color negre per apropar; al botó verd amb un guió per allunyar la imatge; o en les fletxes verdes per a mapes adjacents.


METAR-TAF: